sensor_id;sensor_type;location;lat;lon;timestamp;pressure;altitude;pressure_sealevel;temperature;humidity
55317;BME280;41178;48.956;8.130;2023-02-28T00:01:52;100260.09;;;-0.27;44.00
55317;BME280;41178;48.956;8.130;2023-02-28T00:06:54;100211.75;;;0.15;43.31
55317;BME280;41178;48.956;8.130;2023-02-28T00:11:55;100423.56;;;-1.18;44.88
55317;BME280;41178;48.956;8.130;2023-02-28T00:16:57;100376.25;;;-0.89;44.17
55317;BME280;41178;48.956;8.130;2023-02-28T00:21:59;100271.53;;;-0.53;44.53
55317;BME280;41178;48.956;8.130;2023-02-28T00:27:00;100436.34;;;-1.42;45.24
55317;BME280;41178;48.956;8.130;2023-02-28T00:32:02;100435.66;;;-1.60;45.35
55317;BME280;41178;48.956;8.130;2023-02-28T00:37:06;100378.03;;;-1.32;44.74
55317;BME280;41178;48.956;8.130;2023-02-28T00:42:08;100321.63;;;-0.98;44.69
55317;BME280;41178;48.956;8.130;2023-02-28T00:47:09;100380.66;;;-1.18;44.89
55317;BME280;41178;48.956;8.130;2023-02-28T00:52:11;100236.22;;;-0.36;43.89
55317;BME280;41178;48.956;8.130;2023-02-28T00:57:13;100302.13;;;-0.94;44.85
55317;BME280;41178;48.956;8.130;2023-02-28T01:02:15;100297.66;;;-0.79;44.33
55317;BME280;41178;48.956;8.130;2023-02-28T01:07:16;100341.72;;;-0.97;44.86
55317;BME280;41178;48.956;8.130;2023-02-28T01:12:18;100359.00;;;-1.22;45.34
55317;BME280;41178;48.956;8.130;2023-02-28T01:17:20;100355.59;;;-1.09;44.97
55317;BME280;41178;48.956;8.130;2023-02-28T01:22:22;100366.97;;;-1.23;45.27
55317;BME280;41178;48.956;8.130;2023-02-28T01:27:23;100409.59;;;-1.48;44.88
55317;BME280;41178;48.956;8.130;2023-02-28T01:32:25;100237.97;;;-0.77;45.45
55317;BME280;41178;48.956;8.130;2023-02-28T01:37:27;100316.41;;;-1.27;45.68
55317;BME280;41178;48.956;8.130;2023-02-28T01:42:29;100283.09;;;-1.12;45.40
55317;BME280;41178;48.956;8.130;2023-02-28T01:47:40;100440.09;;;-1.92;46.32
55317;BME280;41178;48.956;8.130;2023-02-28T01:52:43;100376.69;;;-1.54;45.14
55317;BME280;41178;48.956;8.130;2023-02-28T01:57:50;100311.53;;;-1.33;45.72
55317;BME280;41178;48.956;8.130;2023-02-28T02:02:56;100194.44;;;-0.81;45.71
55317;BME280;41178;48.956;8.130;2023-02-28T02:08:05;100229.84;;;-0.87;45.45
55317;BME280;41178;48.956;8.130;2023-02-28T02:34:23;100176.69;;;-0.77;45.33
55317;BME280;41178;48.956;8.130;2023-02-28T02:39:40;100164.78;;;-0.56;44.47
55317;BME280;41178;48.956;8.130;2023-02-28T02:44:50;100381.81;;;-1.97;46.04
55317;BME280;41178;48.956;8.130;2023-02-28T02:49:57;100155.72;;;-0.92;45.97
55317;BME280;41178;48.956;8.130;2023-02-28T02:55:00;100425.19;;;-2.38;46.56
55317;BME280;41178;48.956;8.130;2023-02-28T03:00:04;100187.75;;;-1.00;45.38
55317;BME280;41178;48.956;8.130;2023-02-28T03:05:18;100427.81;;;-2.38;46.65
55317;BME280;41178;48.956;8.130;2023-02-28T03:16:12;100171.63;;;-1.08;46.34
55317;BME280;41178;48.956;8.130;2023-02-28T03:21:14;100311.13;;;-1.84;46.55
55317;BME280;41178;48.956;8.130;2023-02-28T03:26:23;100315.34;;;-1.82;46.24
55317;BME280;41178;48.956;8.130;2023-02-28T03:31:37;100431.00;;;-2.64;47.57
55317;BME280;41178;48.956;8.130;2023-02-28T03:36:50;100269.69;;;-1.94;47.53
55317;BME280;41178;48.956;8.130;2023-02-28T03:42:01;100291.88;;;-1.99;47.52
55317;BME280;41178;48.956;8.130;2023-02-28T03:47:20;100129.22;;;-1.02;46.50
55317;BME280;41178;48.956;8.130;2023-02-28T03:52:27;100080.66;;;-0.56;45.78
55317;BME280;41178;48.956;8.130;2023-02-28T04:02:39;100127.13;;;-0.56;45.55
55317;BME280;41178;48.956;8.130;2023-02-28T04:07:41;100189.88;;;-1.19;46.59
55317;BME280;41178;48.956;8.130;2023-02-28T04:12:43;100218.78;;;-1.33;46.83
55317;BME280;41178;48.956;8.130;2023-02-28T04:17:45;100291.06;;;-1.85;47.64
55317;BME280;41178;48.956;8.130;2023-02-28T04:22:47;100164.97;;;-0.99;46.15
55317;BME280;41178;48.956;8.130;2023-02-28T04:27:48;100241.31;;;-1.58;47.29
55317;BME280;41178;48.956;8.130;2023-02-28T04:32:50;100178.38;;;-1.31;46.98
55317;BME280;41178;48.956;8.130;2023-02-28T04:37:52;100119.28;;;-0.84;46.83
55317;BME280;41178;48.956;8.130;2023-02-28T04:42:54;100219.50;;;-1.17;45.98
55317;BME280;41178;48.956;8.130;2023-02-28T04:47:56;100209.81;;;-1.29;46.38
55317;BME280;41178;48.956;8.130;2023-02-28T04:52:57;100152.84;;;-1.02;47.13
55317;BME280;41178;48.956;8.130;2023-02-28T04:57:59;100278.25;;;-1.61;47.09
55317;BME280;41178;48.956;8.130;2023-02-28T05:03:01;100007.09;;;-0.19;46.49
55317;BME280;41178;48.956;8.130;2023-02-28T05:08:03;100194.97;;;-1.30;47.94
55317;BME280;41178;48.956;8.130;2023-02-28T05:13:06;100326.69;;;-1.81;47.15
55317;BME280;41178;48.956;8.130;2023-02-28T05:18:08;100044.38;;;-0.38;46.24
55317;BME280;41178;48.956;8.130;2023-02-28T05:23:14;100220.88;;;-1.39;46.93
55317;BME280;41178;48.956;8.130;2023-02-28T05:28:17;100165.75;;;-1.11;47.28
55317;BME280;41178;48.956;8.130;2023-02-28T05:33:19;100335.56;;;-1.98;47.52
55317;BME280;41178;48.956;8.130;2023-02-28T05:38:20;100408.59;;;-2.54;48.75
55317;BME280;41178;48.956;8.130;2023-02-28T05:43:22;100144.34;;;-1.05;46.97
55317;BME280;41178;48.956;8.130;2023-02-28T05:48:24;100199.38;;;-1.31;47.08
55317;BME280;41178;48.956;8.130;2023-02-28T05:53:27;100228.38;;;-1.47;47.54
55317;BME280;41178;48.956;8.130;2023-02-28T05:58:29;100018.19;;;-0.02;45.83
55317;BME280;41178;48.956;8.130;2023-02-28T06:03:32;100070.72;;;-0.27;45.91
55317;BME280;41178;48.956;8.130;2023-02-28T06:08:34;100245.78;;;-1.31;47.29
55317;BME280;41178;48.956;8.130;2023-02-28T06:13:36;100182.69;;;-1.03;47.22
55317;BME280;41178;48.956;8.130;2023-02-28T06:18:38;100246.56;;;-1.58;47.53
55317;BME280;41178;48.956;8.130;2023-02-28T06:23:40;100130.47;;;-1.07;47.53
55317;BME280;41178;48.956;8.130;2023-02-28T06:28:42;100240.09;;;-1.52;47.75
55317;BME280;41178;48.956;8.130;2023-02-28T06:33:45;100387.03;;;-2.27;48.69
55317;BME280;41178;48.956;8.130;2023-02-28T06:38:47;100079.03;;;-0.71;47.37
55317;BME280;41178;48.956;8.130;2023-02-28T06:43:53;100409.63;;;-2.41;48.56
55317;BME280;41178;48.956;8.130;2023-02-28T06:48:55;100216.34;;;-1.22;47.14
55317;BME280;41178;48.956;8.130;2023-02-28T06:53:56;100183.78;;;-1.20;48.29
55317;BME280;41178;48.956;8.130;2023-02-28T06:58:58;100256.59;;;-1.50;48.25
55317;BME280;41178;48.956;8.130;2023-02-28T07:04:01;100141.69;;;-0.78;47.40
55317;BME280;41178;48.956;8.130;2023-02-28T07:09:02;100256.59;;;-1.36;47.34
55317;BME280;41178;48.956;8.130;2023-02-28T07:14:05;100212.19;;;-0.85;46.63
55317;BME280;41178;48.956;8.130;2023-02-28T07:19:07;100163.63;;;-0.79;47.29
55317;BME280;41178;48.956;8.130;2023-02-28T07:24:08;100298.88;;;-1.26;47.39
55317;BME280;41178;48.956;8.130;2023-02-28T07:29:10;100162.50;;;-0.62;46.56
55317;BME280;41178;48.956;8.130;2023-02-28T07:34:15;100318.47;;;-1.61;47.55
55317;BME280;41178;48.956;8.130;2023-02-28T07:39:17;100086.31;;;-0.11;46.06
55317;BME280;41178;48.956;8.130;2023-02-28T07:44:18;100126.38;;;-0.20;46.21
55317;BME280;41178;48.956;8.130;2023-02-28T07:49:20;100284.72;;;-1.24;47.51
55317;BME280;41178;48.956;8.130;2023-02-28T07:54:22;100351.97;;;-1.80;48.60
55317;BME280;41178;48.956;8.130;2023-02-28T07:59:24;100314.09;;;-1.46;47.50
55317;BME280;41178;48.956;8.130;2023-02-28T08:04:26;100327.56;;;-1.66;48.33
55317;BME280;41178;48.956;8.130;2023-02-28T08:09:28;100247.91;;;-1.09;47.60
55317;BME280;41178;48.956;8.130;2023-02-28T08:14:31;100035.59;;;0.48;45.80
55317;BME280;41178;48.956;8.130;2023-02-28T08:19:33;100204.25;;;-0.43;46.60
55317;BME280;41178;48.956;8.130;2023-02-28T08:24:34;100245.53;;;-0.72;46.66
55317;BME280;41178;48.956;8.130;2023-02-28T08:29:37;100154.56;;;0.17;45.88
55317;BME280;41178;48.956;8.130;2023-02-28T08:34:39;100163.75;;;-0.02;46.22
55317;BME280;41178;48.956;8.130;2023-02-28T08:39:41;100313.19;;;-0.89;46.79
55317;BME280;41178;48.956;8.130;2023-02-28T08:44:43;100233.84;;;-0.54;46.35
55317;BME280;41178;48.956;8.130;2023-02-28T08:49:45;100124.94;;;0.39;45.41
55317;BME280;41178;48.956;8.130;2023-02-28T08:54:47;100318.94;;;-0.69;46.11
55317;BME280;41178;48.956;8.130;2023-02-28T08:59:49;100280.41;;;-0.41;45.95
55317;BME280;41178;48.956;8.130;2023-02-28T09:04:51;100292.69;;;-0.42;45.69
55317;BME280;41178;48.956;8.130;2023-02-28T09:09:52;100299.78;;;-0.57;45.95
55317;BME280;41178;48.956;8.130;2023-02-28T09:14:59;100205.34;;;0.06;45.38
55317;BME280;41178;48.956;8.130;2023-02-28T09:20:00;100163.31;;;0.54;44.79
55317;BME280;41178;48.956;8.130;2023-02-28T09:25:02;100273.44;;;-0.02;44.92
55317;BME280;41178;48.956;8.130;2023-02-28T09:30:05;100239.63;;;0.17;44.63
55317;BME280;41178;48.956;8.130;2023-02-28T09:35:07;100291.91;;;-0.17;45.20
55317;BME280;41178;48.956;8.130;2023-02-28T09:40:15;100324.94;;;-0.26;45.27
55317;BME280;41178;48.956;8.130;2023-02-28T09:45:33;100381.25;;;-0.43;44.93
55317;BME280;41178;48.956;8.130;2023-02-28T09:50:45;100146.56;;;1.28;43.25
55317;BME280;41178;48.956;8.130;2023-02-28T09:55:58;100285.13;;;0.45;44.14
55317;BME280;41178;48.956;8.130;2023-02-28T10:01:46;100325.88;;;0.39;44.30
55317;BME280;41178;48.956;8.130;2023-02-28T10:06:52;100359.41;;;-0.03;44.15
55317;BME280;41178;48.956;8.130;2023-02-28T10:11:59;100353.88;;;0.27;44.21
55317;BME280;41178;48.956;8.130;2023-02-28T10:17:12;100221.56;;;1.23;43.27
55317;BME280;41178;48.956;8.130;2023-02-28T10:22:18;100347.81;;;0.40;43.47
55317;BME280;41178;48.956;8.130;2023-02-28T10:27:22;100350.84;;;0.59;43.53
55317;BME280;41178;48.956;8.130;2023-02-28T10:32:31;100380.75;;;0.45;43.34
55317;BME280;41178;48.956;8.130;2023-02-28T10:37:34;100328.94;;;0.72;43.51
55317;BME280;41178;48.956;8.130;2023-02-28T10:42:40;100323.66;;;0.59;43.00
55317;BME280;41178;48.956;8.130;2023-02-28T10:58:44;100310.94;;;1.15;42.79
55317;BME280;41178;48.956;8.130;2023-02-28T11:06:32;100530.75;;;-1.24;46.04
55317;BME280;41178;48.956;8.130;2023-02-28T11:11:45;100443.06;;;-0.64;45.48
55317;BME280;41178;48.956;8.130;2023-02-28T11:16:49;100349.31;;;0.04;44.79
55317;BME280;41178;48.956;8.130;2023-02-28T11:21:56;100380.06;;;-0.24;44.83
55317;BME280;41178;48.956;8.130;2023-02-28T11:26:58;100397.94;;;-0.29;45.31
55317;BME280;41178;48.956;8.130;2023-02-28T11:32:16;100338.56;;;-0.06;44.83
55317;BME280;41178;48.956;8.130;2023-02-28T11:37:20;100237.25;;;0.77;44.05
55317;BME280;41178;48.956;8.130;2023-02-28T11:53:29;100226.72;;;1.25;43.78
55317;BME280;41178;48.956;8.130;2023-02-28T12:04:25;100267.91;;;1.15;43.54
55317;BME280;41178;48.956;8.130;2023-02-28T12:35:25;100274.59;;;1.80;42.52
55317;BME280;41178;48.956;8.130;2023-02-28T12:40:41;100286.13;;;1.55;42.81
55317;BME280;41178;48.956;8.130;2023-02-28T12:50:47;100181.03;;;3.07;41.34
55317;BME280;41178;48.956;8.130;2023-02-28T12:55:56;100305.47;;;2.02;42.04
55317;BME280;41178;48.956;8.130;2023-02-28T13:12:01;100214.22;;;3.43;40.84
55317;BME280;41178;48.956;8.130;2023-02-28T13:22:47;100269.88;;;2.87;41.34
55317;BME280;41178;48.956;8.130;2023-02-28T13:27:50;100261.25;;;3.07;40.81
55317;BME280;41178;48.956;8.130;2023-02-28T13:38:33;100416.47;;;1.76;41.28
55317;BME280;41178;48.956;8.130;2023-02-28T13:55:11;100256.47;;;3.34;40.29
55317;BME280;41178;48.956;8.130;2023-02-28T14:06:29;100328.75;;;2.66;40.52
55317;BME280;41178;48.956;8.130;2023-02-28T14:11:37;100390.78;;;2.38;40.24
55317;BME280;41178;48.956;8.130;2023-02-28T14:22:12;100292.16;;;3.39;40.23
55317;BME280;41178;48.956;8.130;2023-02-28T14:33:34;100478.66;;;2.05;41.11
55317;BME280;41178;48.956;8.130;2023-02-28T14:38:29;100360.88;;;3.07;40.19
55317;BME280;41178;48.956;8.130;2023-02-28T14:43:32;100345.34;;;3.14;40.29
55317;BME280;41178;48.956;8.130;2023-02-28T14:48:34;100391.22;;;2.67;40.64
55317;BME280;41178;48.956;8.130;2023-02-28T14:53:37;100250.59;;;4.05;39.92
55317;BME280;41178;48.956;8.130;2023-02-28T14:58:39;100309.84;;;3.39;40.33
55317;BME280;41178;48.956;8.130;2023-02-28T15:03:41;100263.56;;;4.08;39.66
55317;BME280;41178;48.956;8.130;2023-02-28T15:08:46;100396.06;;;3.30;39.78
55317;BME280;41178;48.956;8.130;2023-02-28T15:13:54;100441.44;;;2.67;40.54
55317;BME280;41178;48.956;8.130;2023-02-28T15:19:19;100379.13;;;2.99;40.82
55317;BME280;41178;48.956;8.130;2023-02-28T15:24:28;100289.13;;;3.44;40.58
55317;BME280;41178;48.956;8.130;2023-02-28T15:29:46;100353.91;;;2.95;40.70
55317;BME280;41178;48.956;8.130;2023-02-28T15:34:50;100466.66;;;2.36;40.77
55317;BME280;41178;48.956;8.130;2023-02-28T15:39:53;100476.28;;;2.13;41.16
55317;BME280;41178;48.956;8.130;2023-02-28T15:44:55;100370.91;;;2.90;40.37
55317;BME280;41178;48.956;8.130;2023-02-28T15:50:02;100307.84;;;3.08;40.56
55317;BME280;41178;48.956;8.130;2023-02-28T15:55:22;100293.91;;;3.61;40.12
55317;BME280;41178;48.956;8.130;2023-02-28T16:00:27;100363.16;;;3.12;40.16
55317;BME280;41178;48.956;8.130;2023-02-28T16:05:30;100394.34;;;2.61;41.12
55317;BME280;41178;48.956;8.130;2023-02-28T16:10:33;100364.56;;;3.16;39.94
55317;BME280;41178;48.956;8.130;2023-02-28T16:15:38;100439.31;;;2.37;41.08
55317;BME280;41178;48.956;8.130;2023-02-28T16:20:43;100301.22;;;3.58;40.00
55317;BME280;41178;48.956;8.130;2023-02-28T16:25:46;100417.84;;;3.00;40.16
55317;BME280;41178;48.956;8.130;2023-02-28T16:30:47;100446.72;;;2.67;40.47
55317;BME280;41178;48.956;8.130;2023-02-28T16:35:49;100501.72;;;2.27;40.56
55317;BME280;41178;48.956;8.130;2023-02-28T16:40:53;100391.16;;;3.25;39.88
55317;BME280;41178;48.956;8.130;2023-02-28T16:45:57;100453.03;;;2.42;41.06
55317;BME280;41178;48.956;8.130;2023-02-28T16:51:01;100487.75;;;2.25;41.29
55317;BME280;41178;48.956;8.130;2023-02-28T16:56:06;100402.31;;;2.95;40.73
55317;BME280;41178;48.956;8.130;2023-02-28T17:01:08;100521.38;;;1.86;41.78
55317;BME280;41178;48.956;8.130;2023-02-28T17:06:25;100370.25;;;3.00;40.57
55317;BME280;41178;48.956;8.130;2023-02-28T17:11:29;100499.00;;;2.15;41.59
55317;BME280;41178;48.956;8.130;2023-02-28T17:16:36;100359.41;;;3.25;40.55
55317;BME280;41178;48.956;8.130;2023-02-28T17:21:41;100338.09;;;3.38;40.45
55317;BME280;41178;48.956;8.130;2023-02-28T17:26:45;100508.25;;;1.97;41.96
55317;BME280;41178;48.956;8.130;2023-02-28T17:31:47;100481.44;;;2.14;41.60
55317;BME280;41178;48.956;8.130;2023-02-28T17:36:50;100440.25;;;2.36;41.98
55317;BME280;41178;48.956;8.130;2023-02-28T17:41:54;100493.44;;;2.07;41.33
55317;BME280;41178;48.956;8.130;2023-02-28T17:46:56;100476.13;;;2.27;41.59
55317;BME280;41178;48.956;8.130;2023-02-28T17:51:58;100498.16;;;2.15;41.30
55317;BME280;41178;48.956;8.130;2023-02-28T17:57:00;100440.59;;;2.31;41.63
55317;BME280;41178;48.956;8.130;2023-02-28T18:02:02;100463.81;;;2.39;41.14
55317;BME280;41178;48.956;8.130;2023-02-28T18:07:11;100390.88;;;2.83;41.00
55317;BME280;41178;48.956;8.130;2023-02-28T18:12:12;100502.81;;;2.11;41.23
55317;BME280;41178;48.956;8.130;2023-02-28T18:17:14;100430.19;;;2.41;40.92
55317;BME280;41178;48.956;8.130;2023-02-28T18:22:16;100345.22;;;3.26;40.53
55317;BME280;41178;48.956;8.130;2023-02-28T18:27:17;100529.91;;;1.89;41.14
55317;BME280;41178;48.956;8.130;2023-02-28T18:32:19;100534.97;;;1.92;41.47
55317;BME280;41178;48.956;8.130;2023-02-28T18:37:21;100436.19;;;2.43;40.97
55317;BME280;41178;48.956;8.130;2023-02-28T18:42:23;100489.66;;;1.98;41.23
55317;BME280;41178;48.956;8.130;2023-02-28T18:47:24;100578.59;;;1.21;42.24
55317;BME280;41178;48.956;8.130;2023-02-28T18:52:27;100479.19;;;1.73;41.84
55317;BME280;41178;48.956;8.130;2023-02-28T18:57:28;100432.63;;;1.96;42.04
55317;BME280;41178;48.956;8.130;2023-02-28T19:02:30;100547.03;;;1.06;41.99
55317;BME280;41178;48.956;8.130;2023-02-28T19:07:34;100574.41;;;0.78;42.72
55317;BME280;41178;48.956;8.130;2023-02-28T19:12:36;100533.75;;;1.08;42.79
55317;BME280;41178;48.956;8.130;2023-02-28T19:17:38;100561.84;;;0.82;43.10
55317;BME280;41178;48.956;8.130;2023-02-28T19:22:41;100429.06;;;1.73;42.37
55317;BME280;41178;48.956;8.130;2023-02-28T19:27:43;100602.44;;;0.52;43.44
55317;BME280;41178;48.956;8.130;2023-02-28T19:32:46;100462.13;;;1.01;43.18
55317;BME280;41178;48.956;8.130;2023-02-28T19:37:48;100491.47;;;1.10;42.69
55317;BME280;41178;48.956;8.130;2023-02-28T19:42:50;100461.06;;;1.30;42.26
55317;BME280;41178;48.956;8.130;2023-02-28T19:47:52;100346.56;;;1.82;42.26
55317;BME280;41178;48.956;8.130;2023-02-28T19:52:54;100398.59;;;1.56;41.94
55317;BME280;41178;48.956;8.130;2023-02-28T19:58:00;100444.00;;;1.22;42.42
55317;BME280;41178;48.956;8.130;2023-02-28T20:03:02;100435.16;;;1.11;42.86
55317;BME280;41178;48.956;8.130;2023-02-28T20:08:04;100538.13;;;0.42;43.19
55317;BME280;41178;48.956;8.130;2023-02-28T20:13:05;100486.47;;;0.79;42.85
55317;BME280;41178;48.956;8.130;2023-02-28T20:18:07;100458.06;;;1.10;42.42
55317;BME280;41178;48.956;8.130;2023-02-28T20:23:09;100334.34;;;1.81;42.05
55317;BME280;41178;48.956;8.130;2023-02-28T20:28:11;100442.31;;;1.21;42.58
55317;BME280;41178;48.956;8.130;2023-02-28T20:33:16;100247.66;;;2.78;40.77
55317;BME280;41178;48.956;8.130;2023-02-28T20:38:19;100327.34;;;2.15;41.48
55317;BME280;41178;48.956;8.130;2023-02-28T20:43:20;100426.66;;;1.57;41.72
55317;BME280;41178;48.956;8.130;2023-02-28T20:48:24;100486.19;;;1.22;41.97
55317;BME280;41178;48.956;8.130;2023-02-28T20:53:26;100555.84;;;0.80;42.45
55317;BME280;41178;48.956;8.130;2023-02-28T20:58:33;100305.06;;;2.31;41.36
55317;BME280;41178;48.956;8.130;2023-02-28T21:03:34;100371.53;;;2.25;40.78
55317;BME280;41178;48.956;8.130;2023-02-28T21:08:37;100435.44;;;1.57;41.73
55317;BME280;41178;48.956;8.130;2023-02-28T21:13:40;100461.31;;;1.52;41.59
55317;BME280;41178;48.956;8.130;2023-02-28T21:18:43;100459.25;;;1.69;41.30
55317;BME280;41178;48.956;8.130;2023-02-28T21:23:45;100461.94;;;1.17;42.39
55317;BME280;41178;48.956;8.130;2023-02-28T21:28:55;100537.22;;;0.96;41.85
55317;BME280;41178;48.956;8.130;2023-02-28T21:33:59;100355.19;;;2.08;41.26
55317;BME280;41178;48.956;8.130;2023-02-28T21:39:10;100315.16;;;2.48;41.04
55317;BME280;41178;48.956;8.130;2023-02-28T21:44:12;100467.63;;;1.50;41.40
55317;BME280;41178;48.956;8.130;2023-02-28T21:49:21;100412.31;;;1.85;41.46
55317;BME280;41178;48.956;8.130;2023-02-28T21:54:24;100587.25;;;0.56;42.46
55317;BME280;41178;48.956;8.130;2023-02-28T21:59:26;100419.25;;;1.62;42.04
55317;BME280;41178;48.956;8.130;2023-02-28T22:04:27;100545.50;;;0.77;42.67
55317;BME280;41178;48.956;8.130;2023-02-28T22:09:29;100506.00;;;0.77;42.85
55317;BME280;41178;48.956;8.130;2023-02-28T22:14:31;100442.09;;;1.24;42.44
55317;BME280;41178;48.956;8.130;2023-02-28T22:19:33;100405.34;;;1.60;41.96
55317;BME280;41178;48.956;8.130;2023-02-28T22:24:36;100552.28;;;0.26;43.35
55317;BME280;41178;48.956;8.130;2023-02-28T22:29:38;100458.31;;;0.54;43.59
55317;BME280;41178;48.956;8.130;2023-02-28T22:34:40;100469.00;;;0.78;42.82
55317;BME280;41178;48.956;8.130;2023-02-28T22:39:41;100380.50;;;1.26;42.53
55317;BME280;41178;48.956;8.130;2023-02-28T22:44:43;100315.06;;;1.43;43.11
55317;BME280;41178;48.956;8.130;2023-02-28T22:49:47;100475.06;;;0.53;43.23
55317;BME280;41178;48.956;8.130;2023-02-28T22:54:49;100438.94;;;0.55;43.55
55317;BME280;41178;48.956;8.130;2023-02-28T22:59:51;100412.97;;;0.23;44.26
55317;BME280;41178;48.956;8.130;2023-02-28T23:04:56;100475.91;;;-0.28;45.02
55317;BME280;41178;48.956;8.130;2023-02-28T23:09:57;100362.09;;;0.36;44.04
55317;BME280;41178;48.956;8.130;2023-02-28T23:14:59;100483.00;;;-0.43;44.83
55317;BME280;41178;48.956;8.130;2023-02-28T23:20:01;100455.97;;;0.09;43.53
55317;BME280;41178;48.956;8.130;2023-02-28T23:25:03;100482.94;;;-0.29;44.15
55317;BME280;41178;48.956;8.130;2023-02-28T23:30:05;100544.78;;;-0.81;44.71
55317;BME280;41178;48.956;8.130;2023-02-28T23:35:09;100525.06;;;-1.02;45.74
55317;BME280;41178;48.956;8.130;2023-02-28T23:40:12;100509.22;;;-1.01;45.74
55317;BME280;41178;48.956;8.130;2023-02-28T23:45:14;100578.22;;;-1.59;46.66
55317;BME280;41178;48.956;8.130;2023-02-28T23:50:16;100473.47;;;-1.03;45.90
55317;BME280;41178;48.956;8.130;2023-02-28T23:55:17;100401.47;;;-0.57;45.60
